Little Rock Air Force Base, Arkansas
Current Conditions -  °F | °C
As of 4:08 AM on Sunday 23 Nov 2014 (Local Time) from KLRF Reporting Station
Light Rain Light Rain  
Wind Chill: 57°   Ceiling: 700
Heat Index: 57°   Visibility: 10mi
Dew Point: 55°   Wind: 14mph
Humidity: 94%   Direction: 140°SE
Pressure: 29.71"   Gusts: 21mph
Location:  34.9074°N, 92.1397°W
Report Text: KLRF 231008Z AUTO 14012G18KT 10SM -RA BKN007 OVC012 14/13 A2971 RMK AO2
Loading
Personal Weather Stations






























Interactive Weather Map New forecast layout! Learn more

10-Day Weather Forecast

Advertisements
Track Severe Weather on mobile